createdAt,value
2022-12-03T00:00:55.098Z,2.60
2022-12-03T00:03:23.497Z,2.60
2022-12-03T00:05:52.085Z,2.60
2022-12-03T00:08:20.449Z,2.60
2022-12-03T00:10:48.741Z,2.60
2022-12-03T00:13:17.077Z,2.60
2022-12-03T00:15:46.839Z,2.60
2022-12-03T00:18:15.200Z,2.60
2022-12-03T00:20:43.508Z,2.60
2022-12-03T00:23:11.804Z,2.60
2022-12-03T00:25:40.164Z,2.60
2022-12-03T00:28:08.427Z,2.60
2022-12-03T00:30:36.805Z,2.60
2022-12-03T00:33:06.522Z,2.60
2022-12-03T00:35:34.994Z,2.60
2022-12-03T00:38:03.288Z,2.60
2022-12-03T00:40:31.608Z,2.60
2022-12-03T00:42:59.889Z,2.60
2022-12-03T00:45:28.182Z,2.60
2022-12-03T00:47:56.405Z,2.60
2022-12-03T00:50:26.406Z,2.60
2022-12-03T00:52:54.742Z,2.60
2022-12-03T00:55:23.089Z,2.60
2022-12-03T00:57:51.296Z,2.60
2022-12-03T01:00:24.583Z,2.60
2022-12-03T01:02:53.040Z,2.50
2022-12-03T01:05:21.906Z,2.50
2022-12-03T01:07:51.707Z,2.50
2022-12-03T01:10:20.218Z,2.50
2022-12-03T01:12:48.464Z,2.50
2022-12-03T01:15:17.306Z,2.40
2022-12-03T01:17:45.824Z,2.50
2022-12-03T01:20:14.526Z,2.40
2022-12-03T01:22:43.024Z,2.40
2022-12-03T01:25:13.364Z,2.40
2022-12-03T01:27:41.626Z,2.50
2022-12-03T01:30:12.067Z,2.50
2022-12-03T01:32:39.242Z,2.50
2022-12-03T01:35:08.204Z,2.50
2022-12-03T01:37:36.564Z,2.50
2022-12-03T01:40:05.918Z,2.50
2022-12-03T01:42:38.239Z,2.50
2022-12-03T01:45:07.884Z,2.50
2022-12-03T01:47:38.108Z,2.50
2022-12-03T01:50:09.861Z,2.50
2022-12-03T01:52:40.601Z,2.50
2022-12-03T01:55:14.829Z,2.50
2022-12-03T01:57:48.744Z,2.50
2022-12-03T02:00:19.132Z,2.60
2022-12-03T02:02:51.048Z,2.60
2022-12-03T02:05:21.867Z,2.50
2022-12-03T02:07:50.250Z,2.60
2022-12-03T02:10:22.687Z,2.50
2022-12-03T02:12:55.744Z,2.60
2022-12-03T02:15:24.337Z,2.50
2022-12-03T02:17:52.868Z,2.50
2022-12-03T02:20:21.486Z,2.60
2022-12-03T02:22:56.500Z,2.60
2022-12-03T02:25:28.047Z,2.60
2022-12-03T02:27:57.008Z,2.60
2022-12-03T02:30:27.332Z,2.60
2022-12-03T02:32:56.041Z,2.60
2022-12-03T02:35:26.259Z,2.50
2022-12-03T02:37:59.516Z,2.60
2022-12-03T02:40:33.730Z,2.60
2022-12-03T02:43:03.274Z,2.60
2022-12-03T02:45:34.181Z,2.60
2022-12-03T02:48:05.490Z,2.60
2022-12-03T02:50:35.071Z,2.60
2022-12-03T02:53:07.292Z,2.60
2022-12-03T02:55:38.220Z,2.60
2022-12-03T02:58:07.389Z,2.60
2022-12-03T03:00:37.374Z,2.60
2022-12-03T03:03:07.561Z,2.60
2022-12-03T03:05:37.656Z,2.70
2022-12-03T03:08:07.138Z,2.60
2022-12-03T03:10:39.181Z,2.70
2022-12-03T03:13:11.000Z,2.70
2022-12-03T03:15:40.802Z,2.60
2022-12-03T03:18:10.588Z,2.70
2022-12-03T03:20:39.203Z,2.70
2022-12-03T03:23:14.657Z,2.60
2022-12-03T03:25:46.840Z,2.70
2022-12-03T03:28:16.174Z,2.70
2022-12-03T03:30:45.713Z,2.70
2022-12-03T03:33:15.827Z,2.70
2022-12-03T03:35:46.504Z,2.70
2022-12-03T03:38:15.358Z,2.80
2022-12-03T03:40:45.480Z,2.80
2022-12-03T03:43:14.824Z,2.80
2022-12-03T03:45:43.634Z,2.80
2022-12-03T03:48:12.662Z,2.80
2022-12-03T03:50:42.152Z,2.80
2022-12-03T03:53:10.878Z,2.80
2022-12-03T03:55:40.072Z,2.80
2022-12-03T03:58:09.950Z,2.80
2022-12-03T04:00:38.469Z,2.80
2022-12-03T04:03:07.478Z,2.80
2022-12-03T04:05:35.664Z,2.80
2022-12-03T04:08:03.926Z,2.80
2022-12-03T04:10:49.715Z,2.80
2022-12-03T04:13:19.607Z,2.80
2022-12-03T04:15:47.847Z,2.80
2022-12-03T04:18:33.088Z,2.80
2022-12-03T04:21:15.058Z,2.80
2022-12-03T04:23:43.414Z,2.80
2022-12-03T04:26:29.050Z,2.90
2022-12-03T04:28:58.861Z,2.90
2022-12-03T04:31:44.313Z,2.90
2022-12-03T04:34:29.688Z,2.90
2022-12-03T04:36:58.057Z,2.80
2022-12-03T04:39:26.508Z,2.90
2022-12-03T04:41:54.704Z,2.80
2022-12-03T04:44:39.299Z,2.90
2022-12-03T04:47:11.975Z,2.90
2022-12-03T04:49:42.433Z,2.90
2022-12-03T04:52:11.497Z,2.90
2022-12-03T04:54:40.384Z,2.90
2022-12-03T04:57:10.062Z,2.90
2022-12-03T04:59:40.631Z,2.90
2022-12-03T05:02:09.501Z,2.90
2022-12-03T05:04:37.912Z,2.90
2022-12-03T05:07:06.093Z,2.90
2022-12-03T05:09:34.527Z,2.90
2022-12-03T05:12:03.956Z,2.90
2022-12-03T05:14:32.396Z,2.90
2022-12-03T05:17:02.245Z,2.90
2022-12-03T05:19:44.349Z,2.90
2022-12-03T05:22:12.725Z,2.90
2022-12-03T05:24:40.966Z,2.90
2022-12-03T05:27:09.403Z,2.90
2022-12-03T05:29:37.654Z,2.90
2022-12-03T05:32:07.753Z,2.90
2022-12-03T05:34:36.027Z,2.80
2022-12-03T05:37:04.397Z,2.80
2022-12-03T05:39:32.790Z,2.80
2022-12-03T05:42:18.343Z,2.80
2022-12-03T05:44:46.600Z,2.80
2022-12-03T05:47:16.270Z,2.80
2022-12-03T05:49:44.636Z,2.80
2022-12-03T05:52:12.848Z,2.90
2022-12-03T05:54:41.190Z,2.90
2022-12-03T05:57:09.387Z,2.90
2022-12-03T05:59:37.798Z,2.90
2022-12-03T06:02:06.080Z,2.90
2022-12-03T06:04:36.446Z,2.90
2022-12-03T06:07:06.618Z,2.90
2022-12-03T06:09:38.038Z,2.90
2022-12-03T06:12:07.157Z,2.90
2022-12-03T06:14:36.053Z,2.90
2022-12-03T06:17:04.907Z,2.90
2022-12-03T06:19:34.625Z,3.00
2022-12-03T06:22:04.314Z,3.00
2022-12-03T06:24:32.513Z,3.00
2022-12-03T06:27:00.736Z,3.00
2022-12-03T06:29:28.932Z,3.00
2022-12-03T06:31:57.689Z,3.00
2022-12-03T06:34:28.679Z,3.00
2022-12-03T06:36:57.037Z,3.00
2022-12-03T06:39:26.830Z,3.00
2022-12-03T06:41:55.249Z,3.00
2022-12-03T06:44:23.563Z,3.00
2022-12-03T06:46:52.043Z,3.00
2022-12-03T06:49:20.332Z,3.00
2022-12-03T06:51:48.650Z,3.00
2022-12-03T06:54:16.876Z,3.10
2022-12-03T06:56:47.394Z,3.10
2022-12-03T06:59:15.648Z,3.10
2022-12-03T07:01:44.421Z,3.10
2022-12-03T07:04:12.860Z,3.00
2022-12-03T07:06:41.241Z,3.10
2022-12-03T07:09:09.719Z,3.00
2022-12-03T07:11:41.167Z,3.00
2022-12-03T07:14:12.406Z,3.10
2022-12-03T07:16:43.529Z,3.10
2022-12-03T07:19:12.310Z,3.10
2022-12-03T07:21:40.602Z,3.10
2022-12-03T07:24:09.027Z,3.00
2022-12-03T07:26:37.491Z,3.10
2022-12-03T07:29:05.943Z,3.00
2022-12-03T07:31:35.816Z,3.00
2022-12-03T07:34:04.316Z,3.00
2022-12-03T07:36:32.629Z,3.00
2022-12-03T07:39:00.995Z,3.10
2022-12-03T07:41:29.303Z,3.10
2022-12-03T07:43:57.622Z,3.00
2022-12-03T07:46:26.086Z,3.00
2022-12-03T07:48:55.983Z,3.10
2022-12-03T07:51:30.482Z,3.10
2022-12-03T07:54:00.488Z,3.10
2022-12-03T07:56:28.775Z,3.10
2022-12-03T07:58:57.069Z,3.10
2022-12-03T08:01:25.424Z,3.10
2022-12-03T08:03:55.143Z,3.10
2022-12-03T08:06:23.429Z,3.10
2022-12-03T08:08:51.819Z,3.10
2022-12-03T08:11:20.227Z,3.10
2022-12-03T08:13:48.679Z,3.10
2022-12-03T08:16:20.545Z,3.10
2022-12-03T08:18:51.051Z,3.20
2022-12-03T08:21:22.640Z,3.20
2022-12-03T08:23:51.135Z,3.30
2022-12-03T08:26:25.118Z,3.20
2022-12-03T08:28:54.011Z,3.20
2022-12-03T08:31:29.327Z,3.20
2022-12-03T08:34:15.120Z,3.20
2022-12-03T08:36:44.923Z,3.20
2022-12-03T08:39:28.573Z,3.30
2022-12-03T08:42:17.470Z,3.30
2022-12-03T08:44:46.047Z,3.30
2022-12-03T08:47:20.251Z,3.30
2022-12-03T08:49:54.434Z,3.30
2022-12-03T08:52:31.515Z,3.40
2022-12-03T08:54:59.932Z,3.40
2022-12-03T08:57:30.566Z,3.40
2022-12-03T09:00:01.803Z,3.30
2022-12-03T09:02:34.772Z,3.30
2022-12-03T09:05:14.643Z,3.30
2022-12-03T09:07:44.568Z,3.40
2022-12-03T09:10:13.025Z,3.40
2022-12-03T09:12:41.355Z,3.40
2022-12-03T09:15:10.271Z,3.40
2022-12-03T09:17:38.706Z,3.50
2022-12-03T09:20:08.789Z,3.50
2022-12-03T09:22:37.026Z,3.50
2022-12-03T09:25:07.717Z,3.50
2022-12-03T09:27:36.027Z,3.60
2022-12-03T09:30:04.528Z,3.60
2022-12-03T09:32:33.022Z,3.60
2022-12-03T09:35:01.661Z,3.60
2022-12-03T09:37:29.966Z,3.60
2022-12-03T09:39:58.319Z,3.70
2022-12-03T09:42:28.426Z,3.70
2022-12-03T09:44:57.082Z,3.70
2022-12-03T09:47:25.460Z,3.70
2022-12-03T09:49:54.567Z,3.80
2022-12-03T09:52:26.880Z,3.80
2022-12-03T09:54:55.995Z,3.80
2022-12-03T09:57:24.569Z,3.90
2022-12-03T09:59:54.636Z,3.90
2022-12-03T10:02:26.504Z,3.90
2022-12-03T10:04:55.808Z,3.90
2022-12-03T10:07:24.763Z,3.90
2022-12-03T10:09:53.593Z,3.90
2022-12-03T10:12:25.536Z,3.90
2022-12-03T10:14:55.618Z,4.00
2022-12-03T10:17:24.034Z,4.00
2022-12-03T10:19:52.640Z,4.10
2022-12-03T10:22:21.153Z,4.10
2022-12-03T10:25:07.773Z,4.10
2022-12-03T10:27:36.186Z,4.20
2022-12-03T10:30:16.319Z,4.20
2022-12-03T10:32:46.283Z,4.30
2022-12-03T10:35:16.233Z,4.30
2022-12-03T10:38:02.023Z,4.30
2022-12-03T10:40:32.075Z,4.40
2022-12-03T10:43:15.811Z,4.40
2022-12-03T10:45:46.876Z,4.50
2022-12-03T10:48:17.571Z,4.50
2022-12-03T10:50:51.792Z,4.50
2022-12-03T10:53:21.832Z,4.60
2022-12-03T10:55:52.442Z,4.70
2022-12-03T10:58:26.138Z,4.60
2022-12-03T11:00:57.708Z,4.60
2022-12-03T11:03:27.677Z,4.60
2022-12-03T11:05:57.549Z,4.50
2022-12-03T11:08:28.097Z,4.50
2022-12-03T11:11:01.414Z,4.50
2022-12-03T11:13:46.987Z,4.50
2022-12-03T11:17:10.149Z,4.50
2022-12-03T11:19:52.122Z,4.40
2022-12-03T11:22:41.993Z,4.40
2022-12-03T11:25:46.014Z,4.30
2022-12-03T11:28:34.716Z,4.30
2022-12-03T11:31:09.251Z,4.30
2022-12-03T11:33:41.133Z,4.30
2022-12-03T11:36:15.598Z,4.20
2022-12-03T11:38:53.750Z,4.20
2022-12-03T11:41:25.480Z,4.20
2022-12-03T11:44:31.750Z,4.20
2022-12-03T11:47:13.017Z,4.20
2022-12-03T11:49:48.909Z,4.20
2022-12-03T11:52:31.889Z,4.10
2022-12-03T11:55:06.038Z,4.10
2022-12-03T11:57:39.913Z,4.10
2022-12-03T12:00:21.080Z,4.10
2022-12-03T12:02:50.298Z,4.10
2022-12-03T12:05:24.123Z,4.10
2022-12-03T12:07:52.764Z,4.10
2022-12-03T12:10:40.734Z,4.10
2022-12-03T12:13:28.795Z,4.20
2022-12-03T12:15:57.380Z,4.10
2022-12-03T12:18:39.607Z,4.20
2022-12-03T12:21:48.226Z,4.10
2022-12-03T12:24:36.094Z,4.10
2022-12-03T12:27:06.981Z,4.10
2022-12-03T12:29:35.349Z,4.10
2022-12-03T12:32:13.543Z,4.00
2022-12-03T12:34:43.133Z,4.10
2022-12-03T12:37:15.788Z,4.10
2022-12-03T12:39:44.229Z,4.10
2022-12-03T12:42:30.359Z,4.10
2022-12-03T12:45:02.497Z,4.00
2022-12-03T12:47:32.502Z,4.00
2022-12-03T12:50:01.224Z,4.00
2022-12-03T12:52:31.183Z,4.10
2022-12-03T12:55:04.668Z,4.00
2022-12-03T12:57:35.462Z,4.10
2022-12-03T13:00:05.964Z,4.10
2022-12-03T13:02:46.600Z,4.10
2022-12-03T13:05:15.298Z,4.10
2022-12-03T13:07:46.256Z,4.10
2022-12-03T13:10:37.318Z,4.10
2022-12-03T13:13:27.140Z,4.00
2022-12-03T13:16:01.946Z,4.00
2022-12-03T13:18:40.673Z,4.10
2022-12-03T13:21:20.605Z,4.00
2022-12-03T13:23:52.212Z,4.00
2022-12-03T13:26:38.068Z,4.10
2022-12-03T13:29:15.861Z,4.10
2022-12-03T13:31:51.232Z,4.10
2022-12-03T13:34:23.563Z,4.10
2022-12-03T13:36:58.067Z,4.00
2022-12-03T13:39:32.923Z,4.00
2022-12-03T13:42:33.461Z,4.00
2022-12-03T13:45:03.984Z,4.00
2022-12-03T13:47:33.486Z,4.00
2022-12-03T13:50:04.947Z,4.00
2022-12-03T13:52:35.363Z,4.00
2022-12-03T13:55:08.340Z,4.00
2022-12-03T13:57:36.618Z,3.90
2022-12-03T14:00:06.347Z,4.00
2022-12-03T14:02:34.806Z,3.90
2022-12-03T14:05:03.345Z,3.90
2022-12-03T14:07:31.658Z,3.90
2022-12-03T14:09:59.858Z,3.90
2022-12-03T14:12:33.931Z,3.90
2022-12-03T14:15:02.737Z,4.00
2022-12-03T14:17:31.635Z,4.00
2022-12-03T14:20:01.684Z,4.00
2022-12-03T14:22:30.137Z,4.00
2022-12-03T14:24:58.716Z,4.00
2022-12-03T14:27:28.658Z,4.00
2022-12-03T14:29:57.397Z,4.00
2022-12-03T14:32:26.016Z,4.10
2022-12-03T14:34:54.232Z,4.10
2022-12-03T14:37:22.634Z,4.10
2022-12-03T14:39:51.076Z,4.10
2022-12-03T14:42:18.586Z,4.10
2022-12-03T14:44:50.102Z,4.10
2022-12-03T14:47:19.982Z,4.10
2022-12-03T14:49:48.670Z,4.10
2022-12-03T14:52:17.309Z,4.10
2022-12-03T14:54:46.787Z,4.10
2022-12-03T14:57:16.618Z,4.20
2022-12-03T14:59:47.126Z,4.10
2022-12-03T15:02:17.008Z,4.10
2022-12-03T15:04:45.388Z,4.10
2022-12-03T15:07:13.620Z,4.10
2022-12-03T15:09:41.828Z,4.20
2022-12-03T15:12:10.039Z,4.20
2022-12-03T15:14:38.347Z,4.10
2022-12-03T15:17:06.709Z,4.10
2022-12-03T15:19:36.527Z,4.10
2022-12-03T15:22:04.914Z,4.20
2022-12-03T15:24:33.255Z,4.20
2022-12-03T15:27:01.524Z,4.20
2022-12-03T15:29:30.352Z,4.20
2022-12-03T15:31:59.542Z,4.20
2022-12-03T15:34:29.056Z,4.30
2022-12-03T15:36:58.898Z,4.30
2022-12-03T15:39:27.162Z,4.20
2022-12-03T15:41:55.384Z,4.20
2022-12-03T15:44:23.678Z,4.20
2022-12-03T15:46:52.046Z,4.30
2022-12-03T15:49:20.347Z,4.30
2022-12-03T15:51:48.545Z,4.30
2022-12-03T15:54:18.344Z,4.30
2022-12-03T15:56:46.715Z,4.30
2022-12-03T15:59:15.005Z,4.30
2022-12-03T16:01:43.368Z,4.30
2022-12-03T16:04:11.780Z,4.30
2022-12-03T16:06:40.136Z,4.30
2022-12-03T16:09:08.680Z,4.30
2022-12-03T16:11:38.496Z,4.30
2022-12-03T16:14:06.934Z,4.30
2022-12-03T16:16:35.304Z,4.30
2022-12-03T16:19:03.528Z,4.30
2022-12-03T16:21:31.975Z,4.30
2022-12-03T16:24:00.654Z,4.20
2022-12-03T16:26:30.762Z,4.30
2022-12-03T16:29:00.627Z,4.30
2022-12-03T16:31:29.014Z,4.30
2022-12-03T16:33:57.428Z,4.30
2022-12-03T16:36:25.991Z,4.30
2022-12-03T16:38:54.330Z,4.30
2022-12-03T16:41:22.748Z,4.30
2022-12-03T16:43:51.219Z,4.30
2022-12-03T16:46:26.483Z,4.30
2022-12-03T16:48:56.660Z,4.30
2022-12-03T16:51:25.710Z,4.30
2022-12-03T16:53:54.161Z,4.30
2022-12-03T16:56:22.829Z,4.30
2022-12-03T16:58:51.169Z,4.30
2022-12-03T17:01:21.314Z,4.30
2022-12-03T17:03:49.822Z,4.30
2022-12-03T17:06:18.283Z,4.30
2022-12-03T17:08:49.766Z,4.30
2022-12-03T17:11:19.078Z,4.30
2022-12-03T17:13:47.519Z,4.30
2022-12-03T17:16:15.965Z,4.30
2022-12-03T17:18:45.732Z,4.30
2022-12-03T17:21:14.022Z,4.30
2022-12-03T17:23:42.279Z,4.30
2022-12-03T17:26:10.654Z,4.30
2022-12-03T17:28:39.035Z,4.30
2022-12-03T17:31:07.565Z,4.30
2022-12-03T17:33:35.772Z,4.30
2022-12-03T17:36:06.314Z,4.30
2022-12-03T17:38:39.091Z,4.30
2022-12-03T17:41:08.741Z,4.30
2022-12-03T17:43:37.103Z,4.30
2022-12-03T17:46:06.904Z,4.30
2022-12-03T17:48:35.346Z,4.40
2022-12-03T17:51:05.390Z,4.40
2022-12-03T17:53:33.726Z,4.40
2022-12-03T17:56:02.226Z,4.40
2022-12-03T17:58:30.598Z,4.30
2022-12-03T18:01:02.868Z,4.30
2022-12-03T18:03:32.075Z,4.30
2022-12-03T18:06:00.810Z,4.30
2022-12-03T18:08:30.748Z,4.40
2022-12-03T18:10:59.216Z,4.40
2022-12-03T18:13:42.666Z,4.30
2022-12-03T18:16:11.266Z,4.30
2022-12-03T18:18:39.671Z,4.30
2022-12-03T18:21:08.387Z,4.30
2022-12-03T18:23:38.687Z,4.40
2022-12-03T18:26:07.930Z,4.40
2022-12-03T18:28:36.778Z,4.40
2022-12-03T18:31:07.866Z,4.40
2022-12-03T18:33:36.150Z,4.40
2022-12-03T18:36:04.948Z,4.40
2022-12-03T18:38:35.408Z,4.40
2022-12-03T18:41:05.412Z,4.40
2022-12-03T18:43:37.297Z,4.50
2022-12-03T18:46:31.338Z,4.40
2022-12-03T18:48:59.199Z,4.50
2022-12-03T18:51:28.883Z,4.50
2022-12-03T18:53:57.077Z,4.50
2022-12-03T18:56:26.983Z,4.50
2022-12-03T18:58:55.454Z,4.50
2022-12-03T19:01:24.617Z,4.50
2022-12-03T19:03:55.228Z,4.50
2022-12-03T19:06:23.613Z,4.50
2022-12-03T19:08:54.642Z,4.50
2022-12-03T19:11:23.641Z,4.50
2022-12-03T19:13:53.573Z,4.50
2022-12-03T19:16:22.000Z,4.50
2022-12-03T19:18:50.652Z,4.60
2022-12-03T19:21:19.090Z,4.50
2022-12-03T19:24:22.212Z,4.60
2022-12-03T19:26:35.981Z,4.60
2022-12-03T19:29:06.154Z,4.60
2022-12-03T19:31:34.698Z,4.60
2022-12-03T19:34:03.233Z,4.60
2022-12-03T19:36:33.086Z,4.60
2022-12-03T19:39:01.910Z,4.50
2022-12-03T19:41:31.756Z,4.50
2022-12-03T19:44:00.725Z,4.50
2022-12-03T19:46:30.964Z,4.50
2022-12-03T19:48:59.389Z,4.50
2022-12-03T19:51:36.053Z,4.50
2022-12-03T19:54:05.375Z,4.50
2022-12-03T19:56:34.105Z,4.50
2022-12-03T19:59:02.834Z,4.50
2022-12-03T20:01:35.367Z,4.50
2022-12-03T20:04:04.933Z,4.50
2022-12-03T20:06:35.212Z,4.50
2022-12-03T20:09:07.053Z,4.50
2022-12-03T20:11:36.644Z,4.50
2022-12-03T20:14:08.863Z,4.50
2022-12-03T20:16:38.981Z,4.50
2022-12-03T20:19:09.338Z,4.50
2022-12-03T20:21:38.741Z,4.50
2022-12-03T20:24:07.909Z,4.50
2022-12-03T20:26:36.325Z,4.50
2022-12-03T20:29:04.917Z,4.50
2022-12-03T20:31:33.729Z,4.50
2022-12-03T20:34:05.456Z,4.50
2022-12-03T20:36:34.516Z,4.50
2022-12-03T20:39:06.071Z,4.40
2022-12-03T20:41:37.015Z,4.50
2022-12-03T20:44:06.269Z,4.50
2022-12-03T20:46:34.986Z,4.50
2022-12-03T20:49:05.126Z,4.50
2022-12-03T20:51:34.218Z,4.50
2022-12-03T20:54:03.296Z,4.50
2022-12-03T20:56:33.403Z,4.50
2022-12-03T20:59:04.988Z,4.50
2022-12-03T21:01:34.592Z,4.50
2022-12-03T21:04:04.865Z,4.50
2022-12-03T21:06:34.237Z,4.50
2022-12-03T21:09:03.231Z,4.50
2022-12-03T21:11:34.123Z,4.50
2022-12-03T21:14:02.857Z,4.50
2022-12-03T21:17:05.785Z,4.50
2022-12-03T21:19:25.234Z,4.50
2022-12-03T21:21:53.843Z,4.60
2022-12-03T21:24:22.487Z,4.50
2022-12-03T21:26:51.176Z,4.50
2022-12-03T21:29:19.714Z,4.50
2022-12-03T21:31:48.085Z,4.60
2022-12-03T21:34:16.333Z,4.60
2022-12-03T21:36:46.225Z,4.60
2022-12-03T21:39:14.800Z,4.60
2022-12-03T21:42:34.597Z,4.60
2022-12-03T21:44:31.813Z,4.60
2022-12-03T21:47:09.219Z,4.60
2022-12-03T21:49:41.444Z,4.60
2022-12-03T21:52:11.571Z,4.60
2022-12-03T21:54:40.067Z,4.60
2022-12-03T21:57:08.381Z,4.60
2022-12-03T21:59:36.793Z,4.60
2022-12-03T22:02:05.758Z,4.70
2022-12-03T22:04:34.443Z,4.70
2022-12-03T22:07:03.070Z,4.70
2022-12-03T22:09:34.542Z,4.70
2022-12-03T22:12:02.958Z,4.70
2022-12-03T22:14:31.672Z,4.70
2022-12-03T22:17:00.016Z,4.70
2022-12-03T22:19:28.420Z,4.70
2022-12-03T22:21:56.718Z,4.70
2022-12-03T22:24:25.053Z,4.70
2022-12-03T22:26:55.213Z,4.70
2022-12-03T22:29:23.668Z,4.70
2022-12-03T22:31:52.401Z,4.70
2022-12-03T22:34:20.662Z,4.70
2022-12-03T22:36:49.008Z,4.70
2022-12-03T22:39:17.444Z,4.70
2022-12-03T22:41:46.180Z,4.80
2022-12-03T22:44:16.117Z,4.80
2022-12-03T22:46:44.558Z,4.80
2022-12-03T22:49:14.539Z,4.80
2022-12-03T22:51:45.982Z,4.80
2022-12-03T22:54:17.135Z,4.80
2022-12-03T22:56:49.389Z,4.80
2022-12-03T22:59:19.329Z,4.80
2022-12-03T23:01:47.999Z,4.80
2022-12-03T23:04:16.650Z,4.80
2022-12-03T23:06:44.939Z,4.70
2022-12-03T23:09:13.200Z,4.70
2022-12-03T23:11:41.521Z,4.80
2022-12-03T23:14:09.857Z,4.70
2022-12-03T23:16:41.035Z,4.70
2022-12-03T23:19:09.386Z,4.80
2022-12-03T23:21:37.922Z,4.70
2022-12-03T23:24:07.960Z,4.70
2022-12-03T23:26:38.054Z,4.70
2022-12-03T23:29:08.695Z,4.70
2022-12-03T23:31:38.834Z,4.70
2022-12-03T23:34:07.707Z,4.70
2022-12-03T23:36:36.696Z,4.70
2022-12-03T23:39:05.116Z,4.70
2022-12-03T23:41:33.492Z,4.80
2022-12-03T23:44:01.989Z,4.70
2022-12-03T23:46:30.457Z,4.80
2022-12-03T23:49:01.508Z,4.70
2022-12-03T23:51:29.981Z,4.70
2022-12-03T23:53:58.228Z,4.80
2022-12-03T23:56:29.285Z,4.80
2022-12-03T23:58:58.478Z,4.80
